Time;durP1;ratioP1;P1;durP2;ratioP2;P2;SDS_P1;SDS_P2;PMS_P1;PMS_P2;Temp;Humidity;BMP_temperature;BMP_pressure;BME280_temperature;BME280_humidity;BME280_pressure;Samples;Min_cycle;Max_cycle;Signal;HPM_P1;HPM_P2
2023/09/11 00:00:29;;;;;;;15.38;10.50;;;20.40;99.90;;;;;;4995542;28;20042;-43
2023/09/11 00:02:54;;;;;;;15.43;10.32;;;20.40;99.90;;;;;;4995387;28;20106;-43
2023/09/11 00:05:20;;;;;;;15.30;9.95;;;20.40;99.90;;;;;;4995397;28;20471;-43
2023/09/11 00:07:46;;;;;;;12.68;9.48;;;20.40;99.90;;;;;;4995381;28;20042;-43
2023/09/11 00:10:11;;;;;;;16.92;10.75;;;20.40;99.90;;;;;;4995626;28;20133;-43
2023/09/11 00:12:37;;;;;;;16.77;11.02;;;20.40;99.90;;;;;;4995199;28;20054;-43
2023/09/11 00:15:03;;;;;;;16.40;11.15;;;20.40;99.90;;;;;;4978106;28;20057;-43
2023/09/11 00:17:30;;;;;;;14.80;10.38;;;20.30;99.90;;;;;;4995162;28;20574;-44
2023/09/11 00:19:55;;;;;;;16.95;11.20;;;20.30;99.90;;;;;;4994966;28;20043;-44
2023/09/11 00:22:21;;;;;;;16.17;10.77;;;20.30;99.90;;;;;;4995186;28;20046;-43
2023/09/11 00:24:47;;;;;;;15.45;10.98;;;20.30;99.90;;;;;;4994175;28;20054;-43
2023/09/11 00:27:12;;;;;;;16.55;10.77;;;20.30;99.90;;;;;;4995179;28;20050;-43
2023/09/11 00:29:38;;;;;;;15.30;10.55;;;20.30;99.90;;;;;;4994896;28;20038;-43
2023/09/11 00:32:04;;;;;;;16.50;11.45;;;20.30;99.90;;;;;;4977716;28;20042;-43
2023/09/11 00:34:30;;;;;;;14.40;9.95;;;20.30;99.90;;;;;;4977664;28;20093;-43
2023/09/11 00:36:57;;;;;;;19.42;12.15;;;20.30;99.90;;;;;;4995198;28;20442;-43
2023/09/11 00:39:23;;;;;;;19.00;11.95;;;20.30;99.90;;;;;;4978207;28;20129;-43
2023/09/11 00:41:49;;;;;;;;;;;20.30;99.90;;;;;;4994517;28;20411;-43
2023/09/11 00:44:14;;;;;;;13.98;10.52;;;20.30;99.90;;;;;;4994743;28;20016;-42
2023/09/11 00:46:41;;;;;;;20.30;11.43;;;20.20;99.90;;;;;;4994554;28;20439;-43
2023/09/11 00:49:07;;;;;;;17.65;11.50;;;20.20;99.90;;;;;;4977192;28;20078;-44
2023/09/11 00:51:37;;;;;;;17.65;11.90;;;20.20;99.90;;;;;;4994389;28;20046;-43
2023/09/11 00:54:04;;;;;;;15.32;11.02;;;20.20;99.90;;;;;;4994617;28;20206;-44
2023/09/11 00:56:30;;;;;;;19.75;13.25;;;20.10;99.90;;;;;;4994516;28;20113;-43
2023/09/11 00:58:56;;;;;;;17.17;11.52;;;20.10;99.90;;;;;;4994372;28;20081;-43
2023/09/11 01:01:23;;;;;;;17.35;11.82;;;20.10;99.90;;;;;;4994284;28;20479;-43
2023/09/11 01:03:49;;;;;;;18.02;12.07;;;20.10;99.90;;;;;;4994353;28;20121;-44
2023/09/11 01:06:15;;;;;;;17.98;11.18;;;20.00;99.90;;;;;;4994413;28;20129;-43
2023/09/11 01:08:42;;;;;;;19.75;11.32;;;20.00;99.90;;;;;;4994359;28;20150;-43
2023/09/11 01:11:07;;;;;;;17.55;11.95;;;20.00;99.90;;;;;;4976962;28;20372;-43
2023/09/11 01:13:33;;;;;;;16.63;11.18;;;20.00;99.90;;;;;;4994430;28;20096;-43
2023/09/11 01:16:17;;;;;;;15.05;10.93;;;20.00;99.90;;;;;;5009566;28;20050;-43
2023/09/11 01:19:01;;;;;;;17.23;11.20;;;20.00;99.90;;;;;;4994087;28;20534;-42
2023/09/11 01:21:50;;;;;;;15.02;10.60;;;20.00;99.90;;;;;;4994524;28;20049;-43
2023/09/11 01:24:37;;;;;;;15.73;10.98;;;20.10;99.90;;;;;;4994251;28;20058;-43
2023/09/11 01:27:18;;;;;;;14.77;10.15;;;20.10;99.90;;;;;;4994286;28;20503;-43
2023/09/11 01:29:45;;;;;;;15.15;11.07;;;20.00;99.90;;;;;;4994334;28;20046;-43
2023/09/11 01:32:11;;;;;;;17.38;10.50;;;20.10;99.90;;;;;;4993961;28;20054;-43
2023/09/11 01:34:36;;;;;;;;;;;20.10;99.90;;;;;;4994334;28;20538;-43
2023/09/11 01:37:02;;;;;;;15.40;10.95;;;20.10;99.90;;;;;;4976791;28;19969;-43
2023/09/11 01:39:28;;;;;;;16.35;11.02;;;20.10;99.90;;;;;;4976612;28;20038;-43
2023/09/11 01:42:00;;;;;;;16.65;10.65;;;20.00;99.90;;;;;;4994070;28;20057;-43
2023/09/11 01:44:43;;;;;;;14.77;10.32;;;20.00;99.90;;;;;;4977078;28;20054;-43
2023/09/11 01:47:12;;;;;;;14.52;10.10;;;20.00;99.90;;;;;;4994129;28;20129;-43
2023/09/11 01:49:39;;;;;;;16.23;11.13;;;20.00;99.90;;;;;;4993669;28;20129;-43
2023/09/11 01:52:07;;;;;;;17.38;9.95;;;19.90;99.90;;;;;;4994028;28;20111;-43
2023/09/11 01:54:35;;;;;;;15.52;10.90;;;19.90;99.90;;;;;;4995372;28;20097;-43
2023/09/11 01:57:01;;;;;;;14.90;9.77;;;19.90;99.90;;;;;;4997632;28;20499;-43
2023/09/11 01:59:27;;;;;;;14.13;9.75;;;19.90;99.90;;;;;;4997830;28;20048;-43
2023/09/11 02:01:53;;;;;;;15.25;10.38;;;19.80;99.90;;;;;;4996654;28;20047;-43
2023/09/11 02:04:18;;;;;;;14.23;9.82;;;19.90;99.90;;;;;;4997579;28;20072;-43
2023/09/11 02:06:44;;;;;;;16.52;10.60;;;19.90;99.90;;;;;;4997692;28;20050;-43
2023/09/11 02:09:10;;;;;;;15.52;10.10;;;19.90;99.90;;;;;;4997758;28;20050;-43
2023/09/11 02:11:35;;;;;;;15.27;9.98;;;19.90;99.90;;;;;;4997774;28;20142;-43
2023/09/11 02:14:01;;;;;;;17.50;10.07;;;19.90;99.90;;;;;;4980590;28;20488;-43
2023/09/11 02:16:27;;;;;;;15.45;11.02;;;19.90;99.90;;;;;;4997352;28;20050;-43
2023/09/11 02:18:52;;;;;;;15.68;9.77;;;19.80;99.90;;;;;;4980276;28;20487;-43
2023/09/11 02:21:18;;;;;;;15.52;9.80;;;19.80;99.90;;;;;;4997410;28;20517;-43
2023/09/11 02:23:44;;;;;;;16.02;9.45;;;19.80;99.90;;;;;;4997423;28;20369;-43
2023/09/11 02:26:09;;;;;;;14.95;10.38;;;19.80;99.90;;;;;;4997544;28;20081;-41
2023/09/11 02:28:35;;;;;;;14.63;9.88;;;19.70;99.90;;;;;;4997258;28;20498;-40
2023/09/11 02:31:01;;;;;;;14.52;9.88;;;19.70;99.90;;;;;;4979637;28;20369;-43
2023/09/11 02:33:27;;;;;;;14.05;9.90;;;19.70;99.90;;;;;;4997115;28;20125;-43
2023/09/11 02:35:54;;;;;;;16.60;10.23;;;19.70;99.90;;;;;;4996985;28;20050;-44
2023/09/11 02:38:20;;;;;;;13.88;9.50;;;19.70;99.90;;;;;;4996641;28;20576;-43
2023/09/11 02:40:46;;;;;;;;;;;19.70;99.90;;;;;;4997546;28;20057;-43
2023/09/11 02:43:12;;;;;;;13.57;9.30;;;19.70;99.90;;;;;;4997198;28;19921;-43
2023/09/11 02:45:37;;;;;;;14.85;10.00;;;19.70;99.90;;;;;;4996880;28;20395;-43
2023/09/11 02:48:03;;;;;;;14.15;9.70;;;19.70;99.90;;;;;;4979622;28;20108;-43
2023/09/11 02:50:29;;;;;;;13.50;9.13;;;19.70;99.90;;;;;;4996980;28;20491;-42
2023/09/11 02:52:55;;;;;;;14.75;9.93;;;19.70;99.90;;;;;;4996964;28;20046;-43
2023/09/11 02:55:21;;;;;;;16.20;9.30;;;19.60;99.90;;;;;;4996569;28;20059;-43
2023/09/11 02:57:47;;;;;;;14.93;9.02;;;19.70;99.90;;;;;;4996694;28;20471;-43
2023/09/11 03:00:12;;;;;;;13.63;8.68;;;19.70;99.90;;;;;;4996588;28;20451;-43
2023/09/11 03:02:39;;;;;;;14.95;9.38;;;19.60;99.90;;;;;;4979417;28;20089;-43
2023/09/11 03:05:05;;;;;;;11.75;9.48;;;19.70;99.90;;;;;;4996291;28;20046;-43
2023/09/11 03:07:30;;;;;;;13.57;9.85;;;19.60;99.90;;;;;;4996512;28;20081;-43
2023/09/11 03:09:56;;;;;;;11.93;9.25;;;19.60;99.90;;;;;;4996695;28;20051;-43
2023/09/11 03:12:22;;;;;;;14.40;9.63;;;19.50;99.90;;;;;;4996452;28;20046;-43
2023/09/11 03:14:52;;;;;;;12.93;8.55;;;19.60;99.90;;;;;;4996312;28;20067;-43
2023/09/11 03:17:18;;;;;;;13.40;8.80;;;19.60;99.90;;;;;;4979097;28;20054;-43
2023/09/11 03:19:44;;;;;;;13.93;8.82;;;19.50;99.90;;;;;;4996408;28;20038;-43
2023/09/11 03:22:10;;;;;;;13.80;9.75;;;19.50;99.90;;;;;;4996386;28;20068;-43
2023/09/11 03:24:35;;;;;;;15.40;10.05;;;19.50;99.90;;;;;;4996210;28;20050;-42
2023/09/11 03:27:02;;;;;;;13.77;8.60;;;19.50;99.90;;;;;;4996280;28;20042;-43
2023/09/11 03:29:28;;;;;;;12.52;8.90;;;19.50;99.90;;;;;;4996005;28;20425;-43
2023/09/11 03:31:53;;;;;;;15.40;9.15;;;19.50;99.90;;;;;;4995984;28;20062;-44
2023/09/11 03:34:19;;;;;;;13.63;8.65;;;19.50;99.90;;;;;;4996509;28;20050;-43
2023/09/11 03:36:45;;;;;;;14.20;8.95;;;19.50;99.90;;;;;;4996135;28;20046;-43
2023/09/11 03:39:10;;;;;;;13.05;9.10;;;19.50;99.90;;;;;;4996256;28;20046;-43
2023/09/11 03:41:36;;;;;;;13.40;9.18;;;19.50;99.90;;;;;;4996017;28;20137;-43
2023/09/11 03:44:01;;;;;;;14.20;8.43;;;19.40;99.90;;;;;;4995830;28;20134;-42
2023/09/11 03:46:27;;;;;;;12.52;9.60;;;19.50;99.90;;;;;;4995748;28;20039;-43
2023/09/11 03:48:53;;;;;;;12.93;9.05;;;19.40;99.90;;;;;;4995904;28;20051;-43
2023/09/11 03:51:18;;;;;;;14.05;8.52;;;19.40;99.90;;;;;;4995772;28;20126;-43
2023/09/11 03:53:44;;;;;;;13.80;8.77;;;19.40;99.90;;;;;;4995862;28;20057;-43
2023/09/11 03:56:14;;;;;;;12.82;8.77;;;19.30;99.90;;;;;;4995457;28;20058;-43
2023/09/11 03:58:41;;;;;;;10.90;7.97;;;19.30;99.90;;;;;;4995519;28;20101;-43
2023/09/11 04:01:07;;;;;;;14.07;9.95;;;19.30;99.90;;;;;;4978424;28;20042;-43
2023/09/11 04:03:32;;;;;;;13.18;8.65;;;19.30;99.90;;;;;;4978285;28;20564;-42
2023/09/11 04:05:58;;;;;;;15.02;8.88;;;19.20;99.90;;;;;;4995554;28;20046;-43
2023/09/11 04:08:24;;;;;;;16.10;9.18;;;19.20;99.90;;;;;;4995651;28;20403;-43
2023/09/11 04:10:49;;;;;;;16.83;8.75;;;19.20;99.90;;;;;;4995369;28;20042;-43
2023/09/11 04:13:15;;;;;;;15.82;9.15;;;19.20;99.90;;;;;;4995410;28;20085;-43
2023/09/11 04:15:41;;;;;;;12.23;8.73;;;19.20;99.90;;;;;;4995174;28;20058;-43
2023/09/11 04:18:07;;;;;;;13.70;8.93;;;19.20;99.90;;;;;;4994620;28;20049;-43
2023/09/11 04:20:35;;;;;;;12.88;9.25;;;19.20;99.90;;;;;;4995255;28;20427;-43
2023/09/11 04:23:03;;;;;;;13.43;8.68;;;19.20;99.90;;;;;;4995533;28;20063;-42
2023/09/11 04:25:30;;;;;;;15.25;9.07;;;19.20;99.90;;;;;;4995008;28;20124;-43
2023/09/11 04:27:56;;;;;;;14.00;8.90;;;19.20;99.90;;;;;;4995251;28;20054;-43
2023/09/11 04:30:23;;;;;;;14.27;9.07;;;19.20;99.90;;;;;;4994843;28;20097;-43
2023/09/11 04:32:49;;;;;;;12.98;8.27;;;19.10;99.90;;;;;;4995006;28;20053;-43
2023/09/11 04:35:14;;;;;;;15.00;9.25;;;19.10;99.90;;;;;;4994956;28;20046;-43
2023/09/11 04:37:40;;;;;;;15.50;9.15;;;19.10;99.90;;;;;;4977695;28;20069;-43
2023/09/11 04:40:06;;;;;;;14.20;9.13;;;19.10;99.90;;;;;;4995158;28;20084;-43
2023/09/11 04:42:32;;;;;;;14.70;9.20;;;19.00;99.90;;;;;;4993913;28;20046;-43
2023/09/11 04:44:59;;;;;;;14.32;8.70;;;19.00;99.90;;;;;;4994544;28;20081;-43
2023/09/11 04:47:27;;;;;;;11.43;8.35;;;19.00;99.90;;;;;;4995209;28;20050;-43
2023/09/11 04:49:53;;;;;;;14.55;8.80;;;18.90;99.90;;;;;;4994831;28;20049;-42
2023/09/11 04:52:18;;;;;;;15.27;9.57;;;18.90;99.90;;;;;;5009594;28;20050;-43
2023/09/11 04:54:44;;;;;;;14.25;8.82;;;18.90;99.90;;;;;;4994490;28;20129;-44
2023/09/11 04:57:10;;;;;;;16.48;9.50;;;18.90;99.90;;;;;;4994574;28;20065;-42
2023/09/11 04:59:35;;;;;;;15.15;8.93;;;18.90;99.90;;;;;;4994456;28;20057;-43
2023/09/11 05:02:01;;;;;;;15.82;8.98;;;18.90;99.90;;;;;;4994598;28;20421;-42
2023/09/11 05:04:27;;;;;;;13.20;8.82;;;18.90;99.90;;;;;;4994324;28;20073;-42
2023/09/11 05:06:53;;;;;;;15.30;8.98;;;18.90;99.90;;;;;;4994406;28;20451;-42
2023/09/11 05:09:18;;;;;;;16.23;9.30;;;18.80;99.90;;;;;;4994303;28;20046;-42
2023/09/11 05:11:44;;;;;;;13.82;9.25;;;18.90;99.90;;;;;;4994330;28;20104;-43
2023/09/11 05:14:10;;;;;;;13.98;9.15;;;18.80;99.90;;;;;;4994316;28;20480;-42
2023/09/11 05:16:35;;;;;;;14.40;9.65;;;18.80;99.90;;;;;;4994735;28;20046;-42
2023/09/11 05:19:01;;;;;;;14.70;9.88;;;18.90;99.90;;;;;;4976914;28;20054;-42
2023/09/11 05:21:27;;;;;;;15.30;10.00;;;18.80;99.90;;;;;;4994311;28;20046;-42
2023/09/11 05:23:52;;;;;;;13.45;9.23;;;18.80;99.90;;;;;;4994199;28;20426;-42
2023/09/11 05:26:18;;;;;;;14.20;9.30;;;18.80;99.90;;;;;;4994164;28;20475;-42
2023/09/11 05:28:44;;;;;;;14.43;9.88;;;18.90;99.90;;;;;;4993876;28;20180;-42
2023/09/11 05:31:10;;;;;;;16.40;10.02;;;18.80;99.90;;;;;;4994128;28;20475;-42
2023/09/11 05:33:36;;;;;;;15.48;9.98;;;18.80;99.90;;;;;;4994265;28;20046;-42
2023/09/11 05:36:02;;;;;;;15.82;9.32;;;18.90;99.90;;;;;;4994206;28;20494;-42
2023/09/11 05:38:28;;;;;;;14.52;9.20;;;18.90;99.90;;;;;;4994149;28;20130;-44
2023/09/11 05:40:53;;;;;;;13.13;9.35;;;19.00;99.90;;;;;;4994155;28;20050;-42
2023/09/11 05:43:19;;;;;;;14.02;9.10;;;19.00;99.90;;;;;;4994033;28;20125;-42
2023/09/11 05:45:45;;;;;;;15.98;9.38;;;19.00;99.90;;;;;;4994122;28;20092;-42
2023/09/11 05:48:11;;;;;;;14.27;9.07;;;19.00;99.90;;;;;;4994388;28;20085;-42
2023/09/11 05:50:37;;;;;;;;;;;19.10;99.90;;;;;;4994317;28;20046;-42
2023/09/11 05:53:04;;;;;;;18.38;9.30;;;19.10;99.90;;;;;;4994283;28;19921;-42
2023/09/11 05:55:30;;;;;;;12.60;9.25;;;19.20;99.90;;;;;;4993666;28;20062;-42
2023/09/11 05:57:55;;;;;;;12.52;9.48;;;19.20;99.90;;;;;;4993749;28;20078;-42
2023/09/11 06:00:24;;;;;;;13.63;9.07;;;19.20;99.90;;;;;;4993943;28;20101;-42
2023/09/11 06:02:50;;;;;;;13.98;9.05;;;19.30;99.90;;;;;;4993891;28;20059;-42
2023/09/11 06:05:16;;;;;;;12.40;8.57;;;19.30;99.90;;;;;;4976922;28;20120;-42
2023/09/11 06:07:41;;;;;;;15.15;9.27;;;19.40;99.90;;;;;;4993767;28;20046;-42
2023/09/11 06:10:10;;;;;;;13.38;8.88;;;19.40;99.90;;;;;;5008881;28;20042;-42
2023/09/11 06:12:35;;;;;;;14.35;8.93;;;19.50;99.90;;;;;;4993512;28;20499;-43
2023/09/11 06:15:04;;;;;;;12.80;8.77;;;19.50;99.90;;;;;;4993958;28;20054;-42
2023/09/11 06:17:30;;;;;;;16.25;9.45;;;19.60;99.90;;;;;;4976652;28;20133;-42
2023/09/11 06:19:55;;;;;;;15.98;9.60;;;19.60;99.90;;;;;;4993792;28;20424;-42
2023/09/11 06:22:21;;;;;;;14.52;9.43;;;19.70;99.90;;;;;;4993678;28;20054;-42
2023/09/11 06:24:47;;;;;;;14.65;9.18;;;19.80;99.90;;;;;;4993523;28;20133;-42
2023/09/11 06:27:13;;;;;;;14.63;9.10;;;19.90;99.90;;;;;;4993424;28;20050;-42
2023/09/11 06:29:40;;;;;;;15.65;9.25;;;19.90;99.90;;;;;;4993991;28;20045;-42
2023/09/11 06:32:06;;;;;;;15.93;10.45;;;20.00;99.90;;;;;;4993679;28;20042;-42
2023/09/11 06:34:32;;;;;;;20.63;9.90;;;20.10;99.90;;;;;;4993603;28;20421;-42
2023/09/11 06:36:58;;;;;;;17.48;9.23;;;20.10;99.90;;;;;;4993536;28;20042;-42
2023/09/11 06:39:23;;;;;;;15.20;9.30;;;20.20;99.90;;;;;;4993608;28;20049;-42
2023/09/11 06:41:49;;;;;;;14.98;9.85;;;20.20;99.90;;;;;;4996663;28;20380;-43
2023/09/11 06:44:15;;;;;;;14.75;10.00;;;20.30;99.90;;;;;;4997123;28;20050;-42
2023/09/11 06:46:41;;;;;;;13.57;8.77;;;20.30;99.90;;;;;;4997045;28;20484;-42
2023/09/11 06:49:07;;;;;;;16.02;9.45;;;20.40;99.90;;;;;;4997055;28;20507;-42
2023/09/11 06:51:33;;;;;;;12.73;9.30;;;20.40;99.90;;;;;;4979502;28;20042;-42
2023/09/11 06:53:59;;;;;;;14.90;9.77;;;20.50;99.90;;;;;;4996888;28;20046;-42
2023/09/11 06:56:25;;;;;;;16.20;9.45;;;20.60;99.90;;;;;;4996800;28;20078;-42
2023/09/11 06:58:50;;;;;;;14.57;9.15;;;20.60;99.90;;;;;;4996822;28;20100;-42
2023/09/11 07:01:16;;;;;;;15.15;9.65;;;20.60;99.90;;;;;;4996724;28;20050;-42
2023/09/11 07:03:42;;;;;;;14.50;8.98;;;20.80;99.90;;;;;;4996753;28;20050;-42
2023/09/11 07:06:08;;;;;;;16.55;10.35;;;20.80;99.90;;;;;;4996415;28;20130;-42
2023/09/11 07:08:33;;;;;;;16.90;9.70;;;20.80;99.90;;;;;;4996491;28;20068;-42
2023/09/11 07:10:59;;;;;;;16.48;9.95;;;20.90;99.90;;;;;;4996501;28;20506;-42
2023/09/11 07:13:25;;;;;;;15.95;10.10;;;21.00;99.90;;;;;;4997251;28;20049;-42
2023/09/11 07:15:59;;;;;;;16.67;9.18;;;21.00;99.90;;;;;;4996577;28;20113;-43
2023/09/11 07:18:25;;;;;;;14.05;9.10;;;21.10;99.90;;;;;;4996883;28;20093;-42
2023/09/11 07:20:52;;;;;;;14.77;10.38;;;21.10;99.90;;;;;;4996477;28;20078;-42
2023/09/11 07:23:23;;;;;;;17.27;9.85;;;21.10;99.90;;;;;;4996378;28;20129;-43
2023/09/11 07:25:51;;;;;;;16.38;9.93;;;21.20;99.90;;;;;;4996300;28;20057;-44
2023/09/11 07:28:17;;;;;;;17.60;9.82;;;21.30;99.90;;;;;;4996248;28;20490;-42
2023/09/11 07:30:44;;;;;;;16.42;10.35;;;21.30;99.90;;;;;;4996258;28;20399;-42
2023/09/11 07:33:10;;;;;;;17.02;9.90;;;21.30;99.90;;;;;;4995987;28;20081;-43
2023/09/11 07:35:36;;;;;;;16.80;8.25;;;21.40;99.90;;;;;;4995942;28;20549;-42
2023/09/11 07:38:02;;;;;;;13.52;8.90;;;21.50;99.90;;;;;;4995960;28;20133;-43
2023/09/11 07:40:28;;;;;;;12.93;8.30;;;21.60;99.90;;;;;;4996064;28;20383;-42
2023/09/11 07:42:54;;;;;;;18.55;9.18;;;21.60;99.90;;;;;;4995792;28;20070;-43
2023/09/11 07:45:20;;;;;;;15.95;8.43;;;21.70;99.90;;;;;;4994993;28;20046;-42
2023/09/11 07:47:46;;;;;;;14.32;8.32;;;21.70;99.90;;;;;;4995661;28;20385;-42
2023/09/11 07:50:11;;;;;;;20.70;8.70;;;21.80;99.90;;;;;;4978492;28;20055;-43
2023/09/11 07:52:37;;;;;;;18.17;8.40;;;21.80;99.90;;;;;;4994554;28;20046;-42
2023/09/11 07:55:04;;;;;;;14.75;8.98;;;21.90;99.90;;;;;;4995636;28;20119;-42
2023/09/11 07:57:33;;;;;;;12.52;8.07;;;22.00;99.90;;;;;;4995661;28;20058;-42
2023/09/11 08:00:04;;;;;;;15.05;8.00;;;22.00;99.90;;;;;;4978862;28;20137;-42
2023/09/11 08:02:30;;;;;;;13.90;8.40;;;22.00;99.90;;;;;;4995421;28;20561;-42
2023/09/11 08:04:56;;;;;;;15.45;8.10;;;22.10;99.90;;;;;;4995423;28;20050;-43
2023/09/11 08:07:22;;;;;;;12.88;7.15;;;22.20;99.90;;;;;;4995406;28;20046;-42
2023/09/11 08:09:48;;;;;;;13.77;8.05;;;22.20;99.90;;;;;;4995478;28;20376;-43
2023/09/11 08:12:15;;;;;;;12.88;7.55;;;22.20;99.90;;;;;;4995494;28;20077;-43
2023/09/11 08:14:40;;;;;;;17.23;7.32;;;22.30;99.90;;;;;;4995543;28;20419;-43
2023/09/11 08:17:06;;;;;;;13.73;7.28;;;22.30;99.90;;;;;;4995425;28;20046;-43
2023/09/11 08:19:32;;;;;;;12.32;7.03;;;22.40;99.90;;;;;;4995180;28;20038;-42
2023/09/11 08:21:57;;;;;;;13.10;6.65;;;22.40;99.90;;;;;;4995061;28;20050;-42
2023/09/11 08:24:23;;;;;;;12.90;7.50;;;22.50;99.90;;;;;;4995168;28;20133;-42
2023/09/11 08:26:49;;;;;;;14.32;6.57;;;22.60;99.90;;;;;;4995225;28;20066;-42
2023/09/11 08:29:15;;;;;;;16.58;6.68;;;22.60;99.90;;;;;;4995060;28;20088;-42
2023/09/11 08:31:43;;;;;;;12.68;7.65;;;22.70;99.90;;;;;;4995231;28;20471;-43
2023/09/11 08:34:09;;;;;;;13.43;6.95;;;22.70;99.90;;;;;;4977793;28;20496;-43
2023/09/11 08:36:35;;;;;;;15.57;6.53;;;22.80;99.90;;;;;;4994876;28;20042;-43
2023/09/11 08:39:00;;;;;;;;;;;22.90;99.90;;;;;;4995341;28;20043;-43
2023/09/11 08:41:26;;;;;;;12.25;7.82;;;22.90;99.90;;;;;;4994893;28;19968;-43
2023/09/11 08:43:52;;;;;;;;;;;22.90;99.90;;;;;;4995301;28;20093;-43
2023/09/11 08:46:18;;;;;;;11.68;6.80;;;23.10;99.90;;;;;;4994818;28;19922;-42
2023/09/11 08:48:46;;;;;;;13.57;6.45;;;23.10;99.90;;;;;;4994679;28;20050;-43
2023/09/11 08:51:24;;;;;;;11.35;5.90;;;23.20;99.90;;;;;;4977439;28;20057;-42
2023/09/11 08:53:55;;;;;;;10.55;5.80;;;23.20;99.90;;;;;;4994936;28;20046;-42
2023/09/11 08:56:21;;;;;;;11.75;5.63;;;23.30;99.90;;;;;;4992437;28;20137;-42
2023/09/11 08:58:49;;;;;;;;;;;23.40;99.90;;;;;;4995036;28;20054;-43
2023/09/11 09:01:16;;;;;;;10.27;5.40;;;23.40;99.90;;;;;;4994548;28;19922;-43
2023/09/11 09:03:43;;;;;;;7.80;5.10;;;23.50;99.90;;;;;;4977040;28;20100;-43
2023/09/11 09:06:08;;;;;;;10.85;5.57;;;23.60;99.90;;;;;;4994550;28;20054;-42
2023/09/11 09:08:34;;;;;;;;;;;23.60;99.90;;;;;;4994885;28;20403;-43
2023/09/11 09:11:01;;;;;;;8.80;5.22;;;23.80;99.90;;;;;;5009793;28;20440;-42
2023/09/11 09:13:29;;;;;;;11.27;4.97;;;23.80;99.90;;;;;;4994419;28;20086;-42
2023/09/11 09:15:54;;;;;;;9.02;4.50;;;24.00;99.90;;;;;;4994386;28;20061;-43
2023/09/11 09:18:20;;;;;;;;;;;24.00;99.90;;;;;;4995089;28;20042;-43
2023/09/11 09:20:45;;;;;;;8.35;4.18;;;24.10;99.90;;;;;;4994362;28;20020;-43
2023/09/11 09:23:12;;;;;;;;;;;24.20;99.90;;;;;;4994743;28;20094;-43
2023/09/11 09:25:38;;;;;;;10.20;4.32;;;24.30;99.90;;;;;;4994351;28;20390;-43
2023/09/11 09:28:04;;;;;;;9.48;4.70;;;24.40;99.90;;;;;;4994251;28;20050;-42
2023/09/11 09:30:31;;;;;;;;;;;24.50;99.90;;;;;;4994527;28;20092;-40
2023/09/11 09:32:58;;;;;;;10.75;4.30;;;24.50;99.90;;;;;;4976780;28;19948;-41
2023/09/11 09:35:30;;;;;;;12.07;5.10;;;24.60;99.90;;;;;;4994152;28;20046;-40
2023/09/11 09:37:57;;;;;;;7.38;4.30;;;24.60;99.90;;;;;;4992959;28;20054;-40
2023/09/11 09:40:34;;;;;;;6.75;4.32;;;24.70;99.90;;;;;;4993883;28;20511;-42
2023/09/11 09:43:05;;;;;;;9.27;4.43;;;24.80;99.90;;;;;;4994241;28;20051;-42
2023/09/11 09:45:34;;;;;;;8.93;4.55;;;24.80;99.90;;;;;;4994304;28;20054;-43
2023/09/11 09:48:10;;;;;;;8.73;4.63;;;24.90;99.90;;;;;;4994088;28;20050;-42
2023/09/11 09:50:51;;;;;;;9.73;4.45;;;25.00;99.90;;;;;;4994068;28;20097;-42
2023/09/11 09:53:21;;;;;;;10.45;4.80;;;25.10;99.90;;;;;;4994033;28;20046;-42
2023/09/11 09:55:47;;;;;;;12.02;4.47;;;25.20;99.90;;;;;;4993788;28;20077;-42
2023/09/11 09:58:13;;;;;;;;;;;25.20;99.90;;;;;;4994442;28;20042;-42
2023/09/11 10:00:38;;;;;;;10.00;5.10;;;25.30;99.90;;;;;;4993941;28;20271;-43
2023/09/11 10:03:04;;;;;;;;;;;25.40;99.90;;;;;;4994445;28;20046;-42
2023/09/11 10:05:30;;;;;;;7.97;4.22;;;25.50;99.90;;;;;;4993838;28;19976;-42
2023/09/11 10:07:58;;;;;;;;;;;25.60;99.90;;;;;;4994126;28;20479;-43
2023/09/11 10:10:26;;;;;;;7.90;4.93;;;25.70;99.90;;;;;;4993608;28;19921;-42
2023/09/11 10:13:13;;;;;;;8.95;4.55;;;25.80;99.90;;;;;;4993890;28;20050;-42
2023/09/11 10:15:39;;;;;;;;;;;25.90;99.90;;;;;;4996047;28;20046;-42
2023/09/11 10:18:07;;;;;;;8.38;5.30;;;26.00;99.90;;;;;;4997502;28;20366;-42
2023/09/11 10:20:33;;;;;;;9.30;4.15;;;26.10;99.90;;;;;;4997551;28;20054;-42
2023/09/11 10:23:02;;;;;;;10.25;4.75;;;26.20;99.90;;;;;;4997261;28;20085;-42
2023/09/11 10:25:31;;;;;;;8.63;4.88;;;26.30;99.90;;;;;;4997212;28;20078;-42
2023/09/11 10:28:05;;;;;;;10.05;4.50;;;26.40;99.90;;;;;;4997367;28;20518;-42
2023/09/11 10:30:38;;;;;;;10.60;4.68;;;26.50;99.90;;;;;;4997499;28;20051;-42
2023/09/11 10:33:26;;;;;;;9.00;4.82;;;26.60;99.90;;;;;;4997233;28;20050;-42
2023/09/11 10:35:57;;;;;;;9.95;5.10;;;26.80;99.90;;;;;;4997339;28;20053;-42
2023/09/11 10:38:25;;;;;;;8.10;4.55;;;26.90;99.90;;;;;;4997697;28;20050;-42
2023/09/11 10:40:53;;;;;;;7.32;4.70;;;27.00;99.90;;;;;;4997193;28;20043;-42
2023/09/11 10:43:19;;;;;;;8.98;4.82;;;27.10;99.90;;;;;;4980169;28;20129;-43
2023/09/11 10:45:44;;;;;;;8.85;5.13;;;27.20;99.90;;;;;;4996803;28;20125;-43
2023/09/11 10:48:30;;;;;;;9.27;4.43;;;27.40;99.90;;;;;;4996792;28;20052;-42
2023/09/11 10:50:58;;;;;;;7.27;4.57;;;27.50;99.90;;;;;;4996894;28;20050;-42
2023/09/11 10:53:31;;;;;;;7.72;4.80;;;27.60;99.90;;;;;;4996859;28;20794;-42
2023/09/11 10:56:00;;;;;;;9.57;4.63;;;27.60;99.90;;;;;;4994811;28;20066;-43
2023/09/11 10:58:29;;;;;;;7.82;4.50;;;27.70;99.90;;;;;;4979353;28;20050;-42
2023/09/11 11:00:59;;;;;;;9.98;5.25;;;27.80;99.90;;;;;;4996766;28;20046;-42
2023/09/11 11:03:35;;;;;;;9.40;5.35;;;28.00;99.90;;;;;;4996776;28;20452;-43
2023/09/11 11:06:02;;;;;;;10.40;4.88;;;28.10;99.90;;;;;;5011731;28;20184;-43
2023/09/11 11:08:36;;;;;;;10.18;4.97;;;28.20;99.90;;;;;;4979386;28;20129;-42
2023/09/11 11:11:02;;;;;;;9.75;5.70;;;28.30;99.90;;;;;;4996367;28;20105;-42
2023/09/11 11:13:29;;;;;;;10.65;5.93;;;28.30;99.90;;;;;;4996600;28;20099;-42
2023/09/11 11:16:20;;;;;;;9.38;5.22;;;28.40;99.90;;;;;;4997021;28;20050;-43
2023/09/11 11:18:45;;;;;;;9.30;5.35;;;28.50;99.90;;;;;;4996414;28;20053;-42
2023/09/11 11:21:11;;;;;;;9.48;4.70;;;28.60;99.90;;;;;;4996256;28;20487;-42
2023/09/11 11:23:58;;;;;;;9.40;4.97;;;28.60;99.90;;;;;;4996714;28;20053;-43
2023/09/11 11:26:27;;;;;;;;;;;28.70;99.90;;;;;;4979285;28;20043;-42
2023/09/11 11:28:53;;;;;;;8.70;5.25;;;28.70;99.90;;;;;;4996201;28;19921;-42
2023/09/11 11:31:20;;;;;;;7.40;4.50;;;28.80;99.90;;;;;;4996225;28;20042;-42
2023/09/11 11:33:48;;;;;;;7.45;5.00;;;28.90;99.90;;;;;;4996132;28;20046;-42
2023/09/11 11:36:16;;;;;;;11.45;5.47;;;29.00;99.90;;;;;;4996190;28;20054;-43
2023/09/11 11:38:45;;;;;;;9.15;5.80;;;29.00;99.90;;;;;;4996038;28;20513;-43
2023/09/11 11:41:11;;;;;;;9.20;5.40;;;29.10;99.90;;;;;;4996199;28;20381;-42
2023/09/11 11:43:39;;;;;;;9.90;5.75;;;29.10;99.90;;;;;;4996044;28;20042;-42
2023/09/11 11:46:08;;;;;;;11.48;6.65;;;29.10;99.90;;;;;;4995771;28;20517;-43
2023/09/11 11:48:34;;;;;;;11.90;6.40;;;29.20;99.90;;;;;;5010910;28;20062;-43
2023/09/11 11:51:00;;;;;;;12.10;6.00;;;29.20;99.90;;;;;;4995770;28;20046;-42
2023/09/11 11:53:25;;;;;;;10.07;6.28;;;29.30;99.90;;;;;;4995102;28;20054;-42
2023/09/11 11:55:56;;;;;;;10.05;6.10;;;29.30;99.90;;;;;;4995724;28;20058;-42
2023/09/11 11:58:22;;;;;;;10.85;4.88;;;29.30;99.90;;;;;;4995783;28;20050;-42
2023/09/11 12:01:01;;;;;;;9.20;5.10;;;29.40;99.90;;;;;;4995759;28;20057;-43
2023/09/11 12:03:29;;;;;;;7.32;4.28;;;29.40;99.90;;;;;;4995695;28;20167;-44
2023/09/11 12:06:01;;;;;;;7.65;4.55;;;29.50;99.90;;;;;;4995575;28;20138;-43
2023/09/11 12:08:27;;;;;;;8.57;5.07;;;29.50;99.90;;;;;;4995856;28;20108;-44
2023/09/11 12:10:54;;;;;;;7.85;4.00;;;29.60;99.90;;;;;;4995429;28;20101;-42
2023/09/11 12:13:24;;;;;;;6.90;3.30;;;29.60;99.90;;;;;;4995179;28;20388;-43
2023/09/11 12:15:54;;;;;;;11.07;4.22;;;29.60;99.90;;;;;;4995754;28;20049;-42
2023/09/11 12:18:21;;;;;;;6.80;4.20;;;29.60;99.90;;;;;;4995165;28;20507;-42
2023/09/11 12:20:51;;;;;;;9.38;4.50;;;29.60;99.90;;;;;;4995497;28;20427;-43
2023/09/11 12:23:17;;;;;;;8.40;4.50;;;29.60;99.90;;;;;;4995254;28;20129;-42
2023/09/11 12:25:42;;;;;;;9.55;5.32;;;29.70;99.90;;;;;;4977919;28;20563;-43
2023/09/11 12:28:08;;;;;;;8.48;4.38;;;29.70;99.90;;;;;;4995064;28;20384;-44
2023/09/11 12:30:34;;;;;;;6.72;3.97;;;29.70;99.90;;;;;;4995047;28;20136;-43
2023/09/11 12:33:00;;;;;;;6.47;3.65;;;29.80;99.90;;;;;;4995429;28;20053;-42
2023/09/11 12:35:33;;;;;;;8.15;3.40;;;29.80;99.90;;;;;;4994993;28;20053;-43
2023/09/11 12:37:58;;;;;;;6.85;3.70;;;29.90;99.90;;;;;;4994360;28;20517;-42
2023/09/11 12:40:24;;;;;;;7.05;3.92;;;29.90;99.90;;;;;;4977834;28;20054;-42